createdAt,value
2023-04-30T00:00:46.096Z,100.00
2023-04-30T00:03:14.228Z,100.00
2023-04-30T00:05:42.500Z,100.00
2023-04-30T00:08:11.321Z,100.00
2023-04-30T00:10:39.488Z,100.00
2023-04-30T00:13:10.347Z,100.00
2023-04-30T00:15:38.587Z,100.00
2023-04-30T00:18:07.395Z,100.00
2023-04-30T00:20:35.801Z,100.00
2023-04-30T00:23:05.239Z,100.00
2023-04-30T00:25:33.345Z,100.00
2023-04-30T00:28:01.679Z,100.00
2023-04-30T00:30:32.210Z,100.00
2023-04-30T00:33:00.538Z,100.00
2023-04-30T00:35:28.705Z,100.00
2023-04-30T00:37:57.136Z,100.00
2023-04-30T00:40:25.534Z,100.00
2023-04-30T00:42:55.856Z,100.00
2023-04-30T00:45:24.449Z,100.00
2023-04-30T00:47:54.437Z,100.00
2023-04-30T00:50:25.987Z,100.00
2023-04-30T00:52:54.255Z,100.00
2023-04-30T00:55:22.884Z,100.00
2023-04-30T00:57:53.084Z,100.00
2023-04-30T01:00:24.049Z,100.00
2023-04-30T01:02:54.231Z,100.00
2023-04-30T01:05:23.161Z,100.00
2023-04-30T01:07:52.500Z,100.00
2023-04-30T01:10:27.930Z,100.00
2023-04-30T01:13:04.236Z,100.00
2023-04-30T01:15:44.289Z,100.00
2023-04-30T01:18:20.151Z,100.00
2023-04-30T01:20:54.730Z,100.00
2023-04-30T01:23:36.409Z,100.00
2023-04-30T01:26:17.238Z,100.00
2023-04-30T01:28:47.745Z,100.00
2023-04-30T01:31:16.948Z,100.00
2023-04-30T01:33:45.611Z,100.00
2023-04-30T01:36:35.509Z,100.00
2023-04-30T01:39:28.430Z,100.00
2023-04-30T01:42:07.134Z,100.00
2023-04-30T01:45:01.184Z,100.00
2023-04-30T01:47:38.374Z,100.00
2023-04-30T01:50:16.791Z,100.00
2023-04-30T01:52:48.628Z,100.00
2023-04-30T01:55:22.748Z,100.00
2023-04-30T01:57:57.795Z,100.00
2023-04-30T02:00:28.091Z,100.00
2023-04-30T02:02:56.658Z,100.00
2023-04-30T02:05:26.216Z,100.00
2023-04-30T02:07:55.002Z,100.00
2023-04-30T02:10:26.647Z,100.00
2023-04-30T02:12:55.581Z,100.00
2023-04-30T02:15:23.978Z,100.00
2023-04-30T02:17:53.523Z,100.00
2023-04-30T02:20:21.914Z,100.00
2023-04-30T02:22:50.066Z,100.00
2023-04-30T02:25:18.574Z,100.00
2023-04-30T02:27:46.974Z,100.00
2023-04-30T02:30:15.184Z,100.00
2023-04-30T02:32:43.455Z,100.00
2023-04-30T02:35:13.344Z,100.00
2023-04-30T02:37:41.769Z,100.00
2023-04-30T02:40:10.932Z,100.00
2023-04-30T02:42:39.590Z,100.00
2023-04-30T02:45:08.570Z,100.00
2023-04-30T02:47:36.668Z,100.00
2023-04-30T02:50:05.736Z,100.00
2023-04-30T02:52:35.470Z,100.00
2023-04-30T02:55:04.379Z,100.00
2023-04-30T02:57:32.591Z,100.00
2023-04-30T03:00:01.017Z,100.00
2023-04-30T03:02:29.288Z,100.00
2023-04-30T03:04:57.867Z,100.00
2023-04-30T03:07:26.471Z,100.00
2023-04-30T03:09:56.151Z,100.00
2023-04-30T03:12:24.447Z,100.00
2023-04-30T03:14:53.350Z,100.00
2023-04-30T03:17:21.802Z,100.00
2023-04-30T03:19:50.404Z,100.00
2023-04-30T03:22:19.614Z,100.00
2023-04-30T03:24:50.870Z,100.00
2023-04-30T03:27:21.093Z,100.00
2023-04-30T03:29:49.413Z,100.00
2023-04-30T03:32:17.660Z,100.00
2023-04-30T03:34:46.349Z,100.00
2023-04-30T03:37:14.444Z,100.00
2023-04-30T03:39:45.241Z,100.00
2023-04-30T03:42:13.534Z,100.00
2023-04-30T03:44:43.341Z,100.00
2023-04-30T03:47:11.992Z,100.00
2023-04-30T03:49:40.356Z,100.00
2023-04-30T03:52:08.847Z,100.00
2023-04-30T03:54:36.911Z,100.00
2023-04-30T03:57:07.825Z,100.00
2023-04-30T03:59:36.217Z,100.00
2023-04-30T04:02:06.633Z,100.00
2023-04-30T04:04:35.296Z,100.00
2023-04-30T04:07:04.297Z,100.00
2023-04-30T04:09:32.388Z,100.00
2023-04-30T04:12:01.437Z,100.00
2023-04-30T04:14:29.818Z,100.00
2023-04-30T04:17:00.156Z,100.00
2023-04-30T04:19:30.013Z,100.00
2023-04-30T04:22:01.379Z,100.00
2023-04-30T04:24:29.678Z,100.00
2023-04-30T04:26:58.258Z,100.00
2023-04-30T04:29:26.653Z,100.00
2023-04-30T04:31:55.737Z,100.00
2023-04-30T04:34:24.104Z,100.00
2023-04-30T04:36:54.138Z,100.00
2023-04-30T04:39:22.210Z,100.00
2023-04-30T04:41:51.006Z,100.00
2023-04-30T04:44:19.374Z,100.00
2023-04-30T04:46:47.458Z,100.00
2023-04-30T04:49:15.820Z,100.00
2023-04-30T04:51:44.031Z,100.00
2023-04-30T04:54:13.501Z,100.00
2023-04-30T04:56:41.804Z,100.00
2023-04-30T04:59:09.922Z,100.00
2023-04-30T05:01:38.451Z,100.00
2023-04-30T05:04:06.907Z,100.00
2023-04-30T05:06:35.613Z,100.00
2023-04-30T05:09:05.665Z,100.00
2023-04-30T05:11:35.168Z,100.00
2023-04-30T05:14:03.524Z,100.00
2023-04-30T05:16:31.736Z,100.00
2023-04-30T05:19:00.132Z,100.00
2023-04-30T05:21:32.254Z,100.00
2023-04-30T05:24:00.837Z,100.00
2023-04-30T05:26:29.505Z,100.00
2023-04-30T05:28:59.690Z,100.00
2023-04-30T05:31:28.325Z,100.00
2023-04-30T05:33:56.914Z,100.00
2023-04-30T05:36:25.335Z,100.00
2023-04-30T05:38:53.444Z,100.00
2023-04-30T05:41:22.640Z,100.00
2023-04-30T05:43:50.863Z,100.00
2023-04-30T05:46:20.738Z,100.00
2023-04-30T05:48:49.473Z,100.00
2023-04-30T05:51:18.028Z,100.00
2023-04-30T05:53:46.278Z,100.00
2023-04-30T05:56:14.504Z,100.00
2023-04-30T05:58:42.765Z,100.00
2023-04-30T06:01:12.371Z,100.00
2023-04-30T06:03:42.002Z,100.00
2023-04-30T06:06:10.546Z,99.00
2023-04-30T06:08:38.633Z,98.63
2023-04-30T06:11:07.457Z,99.43
2023-04-30T06:13:35.770Z,100.00
2023-04-30T06:16:04.177Z,99.80
2023-04-30T06:18:32.603Z,99.72
2023-04-30T06:21:02.597Z,100.00
2023-04-30T06:23:30.875Z,100.00
2023-04-30T06:25:59.090Z,100.00
2023-04-30T06:28:27.242Z,100.00
2023-04-30T06:30:55.660Z,100.00
2023-04-30T06:33:23.841Z,99.59
2023-04-30T06:35:55.622Z,99.45
2023-04-30T06:38:25.668Z,99.64
2023-04-30T06:40:55.046Z,98.81
2023-04-30T06:43:23.948Z,98.02
2023-04-30T06:45:52.278Z,97.86
2023-04-30T06:48:20.426Z,97.86
2023-04-30T06:50:48.671Z,98.93
2023-04-30T06:53:16.954Z,100.00
2023-04-30T06:55:47.220Z,100.00
2023-04-30T06:58:15.593Z,100.00
2023-04-30T07:00:44.490Z,99.11
2023-04-30T07:03:16.765Z,97.99
2023-04-30T07:05:45.897Z,97.84
2023-04-30T07:08:15.344Z,99.12
2023-04-30T07:10:43.823Z,99.60
2023-04-30T07:13:13.546Z,100.00
2023-04-30T07:15:42.309Z,100.00
2023-04-30T07:18:10.671Z,100.00
2023-04-30T07:20:38.980Z,100.00
2023-04-30T07:23:07.094Z,100.00
2023-04-30T07:25:36.874Z,100.00
2023-04-30T07:28:05.378Z,100.00
2023-04-30T07:30:35.467Z,100.00
2023-04-30T07:33:03.761Z,100.00
2023-04-30T07:35:32.266Z,100.00
2023-04-30T07:38:00.382Z,100.00
2023-04-30T07:40:35.791Z,100.00
2023-04-30T07:43:05.187Z,100.00
2023-04-30T07:45:35.963Z,100.00
2023-04-30T07:48:04.661Z,100.00
2023-04-30T07:50:34.518Z,100.00
2023-04-30T07:53:03.370Z,100.00
2023-04-30T07:55:31.589Z,100.00
2023-04-30T07:58:00.197Z,100.00
2023-04-30T08:00:31.434Z,100.00
2023-04-30T08:03:01.653Z,100.00
2023-04-30T08:05:30.051Z,100.00
2023-04-30T08:08:02.103Z,99.63
2023-04-30T08:10:30.468Z,98.60
2023-04-30T08:12:58.624Z,97.34
2023-04-30T08:15:28.212Z,97.66
2023-04-30T08:17:57.241Z,95.00
2023-04-30T08:20:27.318Z,92.04
2023-04-30T08:22:55.714Z,90.51
2023-04-30T08:25:23.887Z,88.80
2023-04-30T08:27:51.967Z,86.50
2023-04-30T08:30:20.794Z,87.40
2023-04-30T08:32:51.099Z,88.95
2023-04-30T08:35:19.639Z,88.47
2023-04-30T08:37:50.693Z,88.08
2023-04-30T08:40:20.332Z,89.61
2023-04-30T08:42:55.573Z,89.95
2023-04-30T08:45:24.422Z,90.33
2023-04-30T08:47:54.289Z,89.58
2023-04-30T08:50:24.611Z,90.58
2023-04-30T08:52:54.409Z,90.23
2023-04-30T08:55:22.699Z,90.10
2023-04-30T08:57:51.153Z,89.85
2023-04-30T09:00:21.183Z,89.21
2023-04-30T09:02:51.013Z,87.63
2023-04-30T09:05:22.798Z,88.61
2023-04-30T09:08:02.465Z,88.77
2023-04-30T09:10:35.520Z,86.96
2023-04-30T09:13:06.062Z,87.11
2023-04-30T09:15:37.097Z,86.33
2023-04-30T09:18:13.326Z,87.95
2023-04-30T09:20:57.718Z,87.44
2023-04-30T09:23:26.676Z,88.61
2023-04-30T09:25:56.901Z,88.47
2023-04-30T09:28:27.567Z,88.39
2023-04-30T09:30:58.177Z,88.54
2023-04-30T09:33:46.648Z,88.38
2023-04-30T09:36:15.205Z,88.54
2023-04-30T09:38:43.352Z,88.56
2023-04-30T09:41:24.714Z,88.52
2023-04-30T09:43:53.431Z,90.51
2023-04-30T09:46:22.741Z,93.20
2023-04-30T09:48:59.497Z,91.83
2023-04-30T09:51:28.490Z,91.55
2023-04-30T09:53:57.414Z,92.15
2023-04-30T09:56:30.299Z,91.92
2023-04-30T09:58:58.854Z,92.04
2023-04-30T10:01:28.293Z,92.01
2023-04-30T10:03:57.139Z,92.79
2023-04-30T10:06:30.022Z,92.14
2023-04-30T10:08:59.409Z,90.98
2023-04-30T10:11:34.173Z,91.77
2023-04-30T10:14:05.515Z,91.75
2023-04-30T10:16:42.102Z,91.00
2023-04-30T10:19:15.819Z,91.19
2023-04-30T10:21:46.947Z,92.00
2023-04-30T10:24:18.707Z,92.54
2023-04-30T10:26:49.886Z,92.98
2023-04-30T10:29:19.950Z,92.88
2023-04-30T10:31:50.496Z,93.06
2023-04-30T10:34:30.636Z,92.48
2023-04-30T10:37:02.256Z,92.16
2023-04-30T10:39:31.406Z,92.51
2023-04-30T10:42:05.826Z,92.43
2023-04-30T10:44:35.350Z,90.80
2023-04-30T10:47:04.967Z,89.64
2023-04-30T10:49:33.405Z,89.44
2023-04-30T10:52:03.665Z,88.73
2023-04-30T10:54:34.531Z,89.15
2023-04-30T10:57:14.671Z,89.18
2023-04-30T10:59:53.858Z,90.01
2023-04-30T11:02:22.741Z,89.49
2023-04-30T11:05:13.876Z,88.49
2023-04-30T11:07:52.445Z,88.61
2023-04-30T11:10:23.777Z,88.21
2023-04-30T11:12:54.908Z,87.53
2023-04-30T11:15:26.353Z,87.14
2023-04-30T11:17:59.071Z,87.38
2023-04-30T11:20:29.646Z,86.32
2023-04-30T11:23:11.508Z,85.49
2023-04-30T11:25:43.761Z,85.61
2023-04-30T11:28:18.593Z,85.28
2023-04-30T11:30:53.849Z,84.50
2023-04-30T11:33:23.143Z,87.14
2023-04-30T11:35:53.455Z,86.63
2023-04-30T11:38:23.770Z,85.54
2023-04-30T11:40:52.700Z,86.20
2023-04-30T11:43:27.053Z,87.28
2023-04-30T11:46:09.673Z,85.63
2023-04-30T11:48:39.750Z,85.11
2023-04-30T11:51:16.212Z,84.27
2023-04-30T11:53:44.553Z,84.86
2023-04-30T11:56:13.085Z,86.21
2023-04-30T11:58:43.238Z,85.29
2023-04-30T12:01:11.951Z,85.36
2023-04-30T12:03:44.566Z,85.59
2023-04-30T12:06:13.848Z,85.23
2023-04-30T12:08:43.992Z,85.77
2023-04-30T12:11:26.050Z,87.01
2023-04-30T12:13:57.329Z,87.33
2023-04-30T12:16:26.929Z,88.14
2023-04-30T12:18:55.953Z,88.02
2023-04-30T12:21:24.884Z,87.14
2023-04-30T12:23:54.667Z,86.09
2023-04-30T12:26:23.448Z,86.32
2023-04-30T12:28:52.834Z,86.49
2023-04-30T12:31:22.705Z,87.46
2023-04-30T12:33:57.515Z,87.51
2023-04-30T12:36:32.997Z,87.42
2023-04-30T12:39:18.877Z,87.68
2023-04-30T12:41:48.563Z,87.04
2023-04-30T12:44:18.643Z,87.14
2023-04-30T12:46:49.111Z,87.74
2023-04-30T12:49:30.709Z,87.67
2023-04-30T12:52:02.370Z,86.66
2023-04-30T12:54:32.794Z,85.37
2023-04-30T12:57:03.293Z,84.07
2023-04-30T12:59:32.773Z,84.20
2023-04-30T13:02:13.685Z,85.89
2023-04-30T13:04:43.097Z,85.47
2023-04-30T13:07:11.526Z,85.72
2023-04-30T13:09:40.322Z,84.90
2023-04-30T13:12:08.713Z,85.65
2023-04-30T13:14:37.312Z,85.40
2023-04-30T13:17:12.683Z,84.43
2023-04-30T13:19:42.835Z,85.02
2023-04-30T13:22:11.089Z,85.95
2023-04-30T13:24:39.524Z,85.29
2023-04-30T13:27:07.981Z,85.29
2023-04-30T13:29:37.208Z,83.13
2023-04-30T13:32:06.314Z,84.59
2023-04-30T13:34:34.446Z,83.15
2023-04-30T13:37:04.095Z,83.44
2023-04-30T13:39:32.402Z,84.06
2023-04-30T13:42:01.508Z,83.44
2023-04-30T13:44:32.877Z,81.40
2023-04-30T13:47:01.642Z,80.22
2023-04-30T13:49:31.269Z,81.04
2023-04-30T13:52:00.900Z,81.06
2023-04-30T13:54:30.580Z,82.18
2023-04-30T13:57:02.432Z,77.14
2023-04-30T13:59:31.923Z,73.11
2023-04-30T14:02:02.505Z,72.39
2023-04-30T14:04:31.333Z,73.85
2023-04-30T14:06:59.962Z,74.17
2023-04-30T14:09:29.246Z,73.73
2023-04-30T14:11:59.420Z,74.94
2023-04-30T14:14:30.997Z,75.21
2023-04-30T14:16:59.808Z,75.40
2023-04-30T14:19:28.200Z,75.44
2023-04-30T14:21:56.938Z,75.00
2023-04-30T14:24:26.270Z,76.53
2023-04-30T14:26:54.340Z,78.82
2023-04-30T14:29:24.158Z,81.13
2023-04-30T14:31:52.510Z,82.24
2023-04-30T14:34:21.111Z,82.42
2023-04-30T14:36:49.835Z,82.53
2023-04-30T14:39:17.987Z,83.31
2023-04-30T14:41:46.116Z,84.30
2023-04-30T14:44:14.356Z,85.31
2023-04-30T14:46:44.090Z,88.43
2023-04-30T14:49:12.258Z,88.50
2023-04-30T14:51:40.701Z,87.91
2023-04-30T14:54:09.108Z,85.06
2023-04-30T14:56:37.260Z,87.02
2023-04-30T14:59:05.853Z,84.81
2023-04-30T15:01:34.309Z,84.08
2023-04-30T15:04:04.379Z,83.78
2023-04-30T15:06:35.153Z,83.41
2023-04-30T15:09:03.890Z,83.23
2023-04-30T15:11:32.080Z,80.79
2023-04-30T15:14:00.287Z,77.75
2023-04-30T15:16:29.334Z,80.67
2023-04-30T15:18:58.036Z,79.66
2023-04-30T15:21:29.088Z,80.85
2023-04-30T15:23:57.502Z,82.80
2023-04-30T15:26:26.035Z,81.90
2023-04-30T15:28:58.488Z,80.04
2023-04-30T15:31:26.996Z,82.42
2023-04-30T15:33:55.669Z,83.28
2023-04-30T15:36:24.725Z,83.87
2023-04-30T15:38:54.735Z,84.09
2023-04-30T15:41:24.543Z,85.03
2023-04-30T15:43:52.806Z,90.99
2023-04-30T15:46:21.689Z,95.44
2023-04-30T15:48:49.867Z,98.46
2023-04-30T15:51:18.021Z,97.73
2023-04-30T15:53:46.342Z,98.56
2023-04-30T15:56:15.996Z,97.04
2023-04-30T15:58:44.677Z,98.79
2023-04-30T16:01:12.859Z,99.66
2023-04-30T16:03:41.165Z,100.00
2023-04-30T16:06:09.897Z,100.00
2023-04-30T16:08:38.430Z,100.00
2023-04-30T16:11:08.170Z,100.00
2023-04-30T16:13:38.248Z,100.00
2023-04-30T16:16:11.146Z,100.00
2023-04-30T16:18:39.493Z,100.00
2023-04-30T16:21:10.152Z,100.00
2023-04-30T16:23:41.499Z,100.00
2023-04-30T16:26:09.773Z,100.00
2023-04-30T16:28:41.607Z,100.00
2023-04-30T16:31:11.320Z,100.00
2023-04-30T16:33:39.708Z,100.00
2023-04-30T16:36:08.273Z,100.00
2023-04-30T16:38:37.197Z,100.00
2023-04-30T16:41:05.388Z,100.00
2023-04-30T16:43:33.614Z,100.00
2023-04-30T16:46:03.406Z,100.00
2023-04-30T16:48:31.548Z,100.00
2023-04-30T16:51:00.071Z,100.00
2023-04-30T16:53:29.178Z,100.00
2023-04-30T16:55:57.877Z,100.00
2023-04-30T16:58:26.631Z,100.00
2023-04-30T17:00:56.801Z,100.00
2023-04-30T17:03:26.771Z,100.00
2023-04-30T17:05:55.257Z,100.00
2023-04-30T17:08:23.772Z,100.00
2023-04-30T17:10:52.153Z,100.00
2023-04-30T17:13:20.631Z,100.00
2023-04-30T17:15:49.339Z,100.00
2023-04-30T17:18:17.655Z,100.00
2023-04-30T17:20:49.936Z,100.00
2023-04-30T17:23:17.983Z,100.00
2023-04-30T17:25:46.364Z,100.00
2023-04-30T17:28:14.869Z,100.00
2023-04-30T17:30:44.738Z,100.00
2023-04-30T17:33:13.238Z,100.00
2023-04-30T17:35:41.921Z,100.00
2023-04-30T17:38:12.277Z,100.00
2023-04-30T17:40:41.032Z,100.00
2023-04-30T17:43:09.607Z,100.00
2023-04-30T17:45:37.952Z,100.00
2023-04-30T17:48:06.295Z,100.00
2023-04-30T17:50:34.967Z,100.00
2023-04-30T17:53:03.251Z,100.00
2023-04-30T17:55:33.938Z,100.00
2023-04-30T17:58:03.976Z,100.00
2023-04-30T18:00:32.445Z,100.00
2023-04-30T18:03:00.708Z,100.00
2023-04-30T18:05:28.986Z,100.00
2023-04-30T18:07:56.999Z,100.00
2023-04-30T18:10:28.144Z,100.00
2023-04-30T18:12:59.572Z,100.00
2023-04-30T18:15:28.548Z,100.00
2023-04-30T18:17:57.056Z,100.00
2023-04-30T18:20:25.670Z,100.00
2023-04-30T18:22:53.915Z,100.00
2023-04-30T18:25:22.687Z,100.00
2023-04-30T18:27:51.530Z,100.00
2023-04-30T18:30:21.075Z,100.00
2023-04-30T18:32:49.272Z,100.00
2023-04-30T18:35:18.003Z,100.00
2023-04-30T18:37:46.773Z,100.00
2023-04-30T18:40:15.692Z,100.00
2023-04-30T18:42:43.948Z,100.00
2023-04-30T18:45:12.450Z,100.00
2023-04-30T18:47:42.314Z,100.00
2023-04-30T18:50:15.844Z,100.00
2023-04-30T18:52:45.300Z,100.00
2023-04-30T18:55:14.454Z,100.00
2023-04-30T18:57:43.509Z,100.00
2023-04-30T19:00:14.318Z,100.00
2023-04-30T19:02:44.266Z,100.00
2023-04-30T19:05:12.609Z,100.00
2023-04-30T19:07:41.550Z,100.00
2023-04-30T19:10:10.361Z,100.00
2023-04-30T19:12:39.333Z,100.00
2023-04-30T19:15:11.628Z,100.00
2023-04-30T19:17:40.466Z,100.00
2023-04-30T19:20:11.796Z,100.00
2023-04-30T19:22:40.698Z,100.00
2023-04-30T19:25:12.543Z,100.00
2023-04-30T19:27:41.140Z,100.00
2023-04-30T19:30:10.492Z,100.00
2023-04-30T19:32:39.081Z,100.00
2023-04-30T19:35:12.706Z,100.00
2023-04-30T19:37:41.404Z,100.00
2023-04-30T19:40:12.028Z,100.00
2023-04-30T19:42:41.016Z,100.00
2023-04-30T19:45:13.388Z,100.00
2023-04-30T19:47:41.642Z,100.00
2023-04-30T19:50:12.110Z,100.00
2023-04-30T19:52:40.338Z,100.00
2023-04-30T19:55:09.860Z,100.00
2023-04-30T19:57:37.980Z,100.00
2023-04-30T20:00:07.150Z,100.00
2023-04-30T20:02:35.484Z,100.00
2023-04-30T20:05:06.475Z,100.00
2023-04-30T20:07:37.003Z,100.00
2023-04-30T20:10:05.639Z,100.00
2023-04-30T20:12:33.766Z,100.00
2023-04-30T20:15:02.418Z,100.00
2023-04-30T20:17:30.649Z,100.00
2023-04-30T20:19:59.143Z,100.00
2023-04-30T20:22:28.264Z,100.00
2023-04-30T20:24:58.424Z,100.00
2023-04-30T20:27:26.860Z,100.00
2023-04-30T20:29:55.837Z,100.00
2023-04-30T20:32:24.382Z,100.00
2023-04-30T20:34:52.916Z,100.00
2023-04-30T20:37:21.438Z,100.00
2023-04-30T20:39:50.729Z,100.00
2023-04-30T20:42:20.394Z,100.00
2023-04-30T20:44:48.713Z,100.00
2023-04-30T20:47:16.963Z,100.00
2023-04-30T20:49:45.260Z,100.00
2023-04-30T20:52:15.656Z,100.00
2023-04-30T20:54:44.305Z,100.00
2023-04-30T20:57:12.618Z,100.00
2023-04-30T20:59:42.657Z,100.00
2023-04-30T21:02:10.935Z,100.00
2023-04-30T21:04:39.148Z,100.00
2023-04-30T21:07:07.448Z,100.00
2023-04-30T21:09:37.070Z,100.00
2023-04-30T21:12:06.359Z,100.00
2023-04-30T21:14:35.689Z,100.00
2023-04-30T21:17:05.512Z,100.00
2023-04-30T21:19:33.980Z,100.00
2023-04-30T21:22:02.300Z,100.00
2023-04-30T21:24:32.231Z,100.00
2023-04-30T21:27:00.564Z,100.00
2023-04-30T21:29:28.804Z,100.00
2023-04-30T21:31:57.386Z,100.00
2023-04-30T21:34:27.716Z,100.00
2023-04-30T21:36:56.715Z,100.00
2023-04-30T21:39:25.330Z,100.00
2023-04-30T21:41:53.701Z,100.00
2023-04-30T21:44:22.075Z,100.00
2023-04-30T21:46:50.888Z,100.00
2023-04-30T21:49:19.009Z,100.00
2023-04-30T21:51:48.946Z,100.00
2023-04-30T21:54:19.329Z,100.00
2023-04-30T21:56:47.591Z,100.00
2023-04-30T21:59:17.873Z,100.00
2023-04-30T22:01:46.412Z,100.00
2023-04-30T22:04:15.513Z,100.00
2023-04-30T22:06:43.765Z,100.00
2023-04-30T22:09:21.394Z,100.00
2023-04-30T22:11:50.390Z,100.00
2023-04-30T22:14:18.668Z,100.00
2023-04-30T22:16:51.277Z,100.00
2023-04-30T22:19:19.768Z,100.00
2023-04-30T22:21:47.852Z,100.00
2023-04-30T22:24:16.567Z,100.00
2023-04-30T22:26:46.032Z,100.00
2023-04-30T22:29:14.047Z,100.00
2023-04-30T22:31:42.392Z,100.00
2023-04-30T22:34:10.929Z,100.00
2023-04-30T22:36:38.925Z,100.00
2023-04-30T22:39:07.342Z,100.00
2023-04-30T22:41:35.456Z,100.00
2023-04-30T22:44:05.826Z,100.00
2023-04-30T22:46:36.872Z,100.00
2023-04-30T22:49:05.166Z,100.00
2023-04-30T22:51:36.480Z,100.00
2023-04-30T22:54:05.276Z,100.00
2023-04-30T22:56:34.044Z,100.00
2023-04-30T22:59:03.083Z,100.00
2023-04-30T23:01:33.516Z,100.00
2023-04-30T23:04:01.661Z,100.00
2023-04-30T23:06:30.430Z,100.00
2023-04-30T23:08:58.882Z,100.00
2023-04-30T23:11:27.297Z,100.00
2023-04-30T23:13:55.888Z,100.00
2023-04-30T23:16:24.328Z,100.00
2023-04-30T23:18:54.002Z,100.00
2023-04-30T23:21:22.535Z,100.00
2023-04-30T23:23:51.188Z,100.00
2023-04-30T23:26:19.359Z,100.00
2023-04-30T23:28:47.368Z,100.00
2023-04-30T23:31:18.255Z,100.00
2023-04-30T23:33:46.344Z,100.00
2023-04-30T23:36:16.157Z,100.00
2023-04-30T23:38:46.779Z,100.00
2023-04-30T23:41:15.548Z,100.00
2023-04-30T23:43:43.909Z,100.00
2023-04-30T23:46:12.269Z,100.00
2023-04-30T23:48:40.946Z,100.00
2023-04-30T23:51:09.475Z,100.00
2023-04-30T23:53:39.692Z,100.00
2023-04-30T23:56:08.505Z,100.00
2023-04-30T23:58:36.756Z,100.00
